Летающим высоко и низко: ПОГОДА В АЭРОПОРТАХ

Datasource: http://meteocentre.com/cgi-bin/get_taf?STN=UUEE
    за последний срок по а/п  (сейчас 10:42 мск)
UUEE на Метеоцентре                GFS-прогноз по UUEE                   Погода сейчас
UUEE: TAF UUEE 161057Z 1612/1712 24006MPS 9999 SCT030 TX17/1612Z TN04/1703Z

BECMG 1704/1706 VRB01MPS=

TAF UUEE 161057Z 1612/1712 24006MPS 9999 SCT030 TX17/1612Z

TN04/1703Z

BECMG 1704/1706 VRB01MPS=

TAF UUEE 161057Z 1612/1712 24006MPS 9999 SCT030 TX17/1612Z TN04/1703Z

BECMG 1704/1706 VRB01MPS=

Авиапрогноз Москва (Шереметьево), составлен 16 октября 14:57 мск:
с 15:00 (16 октября) до 15:00 (17 октября) ветер 240° (ЗЮЗ) 6 м/c; видимость > 10 км; облачн. разбросанная 900 м; [TX17/1612Z] [TN04/1703Z]
Постеп. изменение: с 7:00 (17 октября) до 9:00 (17 октября) ветер переменный 1 м/c;

Красным подкрашены опасные явления погоды, синим - предпосылки к ним, читайте комментарии. На данный момент охвачены Россия и Украина. Погода обновляется примерно раз в полчаса, вскоре после наблюдений. Прогноз обновляется примерно раз в час. Для обзорности глядите также фактическую погоду вокруг..., по трехчасовым срокам. Это тестовая версия, любые замечания приветствуются
GeoFAQ - гео-информационные технологии Летающие Болотоходцы

GeoFAQ: по просьбе сообщества Летающие болотоходцы
по рекомендациям Метеоцентра